FL71 weather

Pennington Heliport
De Funiak Springs, Florida, United States

Public forecast

Using degrees Fahrenheit for public forecast. Weather courtesy of forecast.io.

METAR (pilot weather report)

Closest report is Destin Executive Airport, 15.2 nm (28.2 km) W. Retrieved 2018/04/21 04:53 UTC (10 minutes ago):

KDTS 210453Z AUTO 06007KT 10SM BKN055 20/09 A3019 RMK AO2 SLP221 T02000089 $

TAF (pilot weather forecast)

Closest forecast is Destin-Ft Walton Beach Airport, 19.1 nm (35.3 km) WNW. Retrieved 2018/04/21 01:08 UTC (4 hours ago):

TAF KVPS 210100Z 2101/2207 03006KT 9999 BKN250 QNH3015INS BECMG 2115/2116 09012G18KT 9999 SCT030 SCT250 QNH3020INS BECMG 2121/2122 11010G15KT 9999 -SHRA BKN025 BKN250 QNH3016INS BECMG 2201/2202 12009KT 9999 VCSH BKN020 BKN250 QNH3008INS TX25/2120Z TN12/2111Z FCST BY USAF WX MET TECH